sensor_id;sensor_type;location;lat;lon;timestamp;pressure;altitude;pressure_sealevel;temperature;humidity
30110;BME280;14965;50.660;13.226;2023-08-07T00:01:25;93837.66;;;12.39;100.00
30110;BME280;14965;50.660;13.226;2023-08-07T00:03:53;93849.41;;;12.34;100.00
30110;BME280;14965;50.660;13.226;2023-08-07T00:06:18;93854.38;;;12.30;100.00
30110;BME280;14965;50.660;13.226;2023-08-07T00:08:44;93848.84;;;12.30;100.00
30110;BME280;14965;50.660;13.226;2023-08-07T00:11:11;93843.28;;;12.30;100.00
30110;BME280;14965;50.660;13.226;2023-08-07T00:13:37;93843.56;;;12.32;100.00
30110;BME280;14965;50.660;13.226;2023-08-07T00:16:03;93844.81;;;12.31;100.00
30110;BME280;14965;50.660;13.226;2023-08-07T00:18:30;93833.94;;;12.27;100.00
30110;BME280;14965;50.660;13.226;2023-08-07T00:20:57;93835.16;;;12.26;100.00
30110;BME280;14965;50.660;13.226;2023-08-07T00:23:23;93837.19;;;12.26;100.00
30110;BME280;14965;50.660;13.226;2023-08-07T00:25:49;93833.53;;;12.19;100.00
30110;BME280;14965;50.660;13.226;2023-08-07T00:28:15;93836.78;;;12.18;100.00
30110;BME280;14965;50.660;13.226;2023-08-07T00:30:41;93838.97;;;12.14;100.00
30110;BME280;14965;50.660;13.226;2023-08-07T00:33:07;93840.97;;;12.13;100.00
30110;BME280;14965;50.660;13.226;2023-08-07T00:35:33;93846.97;;;12.12;100.00
30110;BME280;14965;50.660;13.226;2023-08-07T00:38:01;93838.28;;;12.04;100.00
30110;BME280;14965;50.660;13.226;2023-08-07T00:40:27;93836.72;;;12.03;100.00
30110;BME280;14965;50.660;13.226;2023-08-07T00:42:53;93846.00;;;12.00;100.00
30110;BME280;14965;50.660;13.226;2023-08-07T00:45:18;93840.91;;;11.99;100.00
30110;BME280;14965;50.660;13.226;2023-08-07T00:47:45;93835.56;;;11.95;100.00
30110;BME280;14965;50.660;13.226;2023-08-07T00:50:11;93839.75;;;11.90;100.00
30110;BME280;14965;50.660;13.226;2023-08-07T00:52:38;93840.06;;;11.92;100.00
30110;BME280;14965;50.660;13.226;2023-08-07T00:55:06;93836.97;;;11.90;100.00
30110;BME280;14965;50.660;13.226;2023-08-07T00:57:32;93837.75;;;11.91;100.00
30110;BME280;14965;50.660;13.226;2023-08-07T00:59:59;93843.28;;;11.91;100.00
30110;BME280;14965;50.660;13.226;2023-08-07T01:02:25;93845.59;;;11.92;100.00
30110;BME280;14965;50.660;13.226;2023-08-07T01:04:51;93836.69;;;11.88;100.00
30110;BME280;14965;50.660;13.226;2023-08-07T01:07:17;93844.06;;;11.91;100.00
30110;BME280;14965;50.660;13.226;2023-08-07T01:09:43;93843.09;;;11.94;100.00
30110;BME280;14965;50.660;13.226;2023-08-07T01:12:16;93842.34;;;11.94;100.00
30110;BME280;14965;50.660;13.226;2023-08-07T01:14:55;93841.09;;;11.95;100.00
30110;BME280;14965;50.660;13.226;2023-08-07T01:17:24;93841.56;;;11.93;100.00
30110;BME280;14965;50.660;13.226;2023-08-07T01:19:51;93843.28;;;11.91;100.00
30110;BME280;14965;50.660;13.226;2023-08-07T01:22:19;93840.06;;;11.92;100.00
30110;BME280;14965;50.660;13.226;2023-08-07T01:24:48;93835.56;;;11.95;100.00
30110;BME280;14965;50.660;13.226;2023-08-07T01:27:44;93848.19;;;11.96;100.00
30110;BME280;14965;50.660;13.226;2023-08-07T01:30:20;93849.13;;;11.93;100.00
30110;BME280;14965;50.660;13.226;2023-08-07T01:32:59;93844.50;;;11.90;100.00
30110;BME280;14965;50.660;13.226;2023-08-07T01:35:36;93841.47;;;11.88;100.00
30110;BME280;14965;50.660;13.226;2023-08-07T01:38:07;93843.56;;;11.93;100.00
30110;BME280;14965;50.660;13.226;2023-08-07T01:40:36;93848.47;;;11.98;100.00
30110;BME280;14965;50.660;13.226;2023-08-07T01:43:03;93844.66;;;11.95;100.00
30110;BME280;14965;50.660;13.226;2023-08-07T01:45:29;93844.81;;;11.92;100.00
30110;BME280;14965;50.660;13.226;2023-08-07T01:47:55;93840.22;;;11.89;100.00
30110;BME280;14965;50.660;13.226;2023-08-07T01:50:23;93846.25;;;11.87;100.00
30110;BME280;14965;50.660;13.226;2023-08-07T01:52:49;93850.53;;;11.88;100.00
30110;BME280;14965;50.660;13.226;2023-08-07T01:55:19;93845.44;;;11.87;100.00
30110;BME280;14965;50.660;13.226;2023-08-07T01:57:45;93852.53;;;11.88;100.00
30110;BME280;14965;50.660;13.226;2023-08-07T02:00:12;93845.44;;;11.87;100.00
30110;BME280;14965;50.660;13.226;2023-08-07T02:02:38;93850.53;;;11.88;100.00
30110;BME280;14965;50.660;13.226;2023-08-07T02:05:05;93844.69;;;11.86;100.00
30110;BME280;14965;50.660;13.226;2023-08-07T02:07:31;93857.00;;;11.85;100.00
30110;BME280;14965;50.660;13.226;2023-08-07T02:09:58;93847.63;;;11.83;100.00
30110;BME280;14965;50.660;13.226;2023-08-07T02:12:25;93843.78;;;11.80;100.00
30110;BME280;14965;50.660;13.226;2023-08-07T02:14:51;93851.19;;;11.83;100.00
30110;BME280;14965;50.660;13.226;2023-08-07T02:17:17;93855.00;;;11.86;100.00
30110;BME280;14965;50.660;13.226;2023-08-07T02:19:43;93853.00;;;11.86;100.00
30110;BME280;14965;50.660;13.226;2023-08-07T02:22:09;93856.25;;;11.85;100.00
30110;BME280;14965;50.660;13.226;2023-08-07T02:24:34;93856.25;;;11.85;100.00
30110;BME280;14965;50.660;13.226;2023-08-07T02:27:00;93858.25;;;11.84;100.00
30110;BME280;14965;50.660;13.226;2023-08-07T02:29:28;93852.53;;;11.79;100.00
30110;BME280;14965;50.660;13.226;2023-08-07T02:31:54;93854.09;;;11.80;100.00
30110;BME280;14965;50.660;13.226;2023-08-07T02:34:19;93850.41;;;11.83;100.00
30110;BME280;14965;50.660;13.226;2023-08-07T02:36:45;93856.50;;;11.87;100.00
30110;BME280;14965;50.660;13.226;2023-08-07T02:39:13;93849.78;;;11.88;100.00
30110;BME280;14965;50.660;13.226;2023-08-07T02:41:39;93852.81;;;11.90;100.00
30110;BME280;14965;50.660;13.226;2023-08-07T02:44:05;93840.22;;;11.89;100.00
30110;BME280;14965;50.660;13.226;2023-08-07T02:46:32;93857.91;;;11.82;100.00
30110;BME280;14965;50.660;13.226;2023-08-07T02:48:58;93844.44;;;11.75;100.00
30110;BME280;14965;50.660;13.226;2023-08-07T02:51:24;93868.00;;;11.70;100.00
30110;BME280;14965;50.660;13.226;2023-08-07T02:53:50;93858.72;;;11.73;100.00
30110;BME280;14965;50.660;13.226;2023-08-07T02:56:16;93866.00;;;11.71;100.00
30110;BME280;14965;50.660;13.226;2023-08-07T02:58:42;93866.00;;;11.71;100.00
30110;BME280;14965;50.660;13.226;2023-08-07T03:01:08;93879.34;;;11.72;100.00
30110;BME280;14965;50.660;13.226;2023-08-07T03:03:35;93871.03;;;11.72;100.00
30110;BME280;14965;50.660;13.226;2023-08-07T03:06:01;93868.28;;;11.72;100.00
30110;BME280;14965;50.660;13.226;2023-08-07T03:08:27;93872.28;;;11.71;100.00
30110;BME280;14965;50.660;13.226;2023-08-07T03:10:55;93871.53;;;11.71;100.00
30110;BME280;14965;50.660;13.226;2023-08-07T03:13:22;93875.03;;;11.71;100.00
30110;BME280;14965;50.660;13.226;2023-08-07T03:15:48;93884.09;;;11.72;100.00
30110;BME280;14965;50.660;13.226;2023-08-07T03:18:13;93890.88;;;11.71;100.00
30110;BME280;14965;50.660;13.226;2023-08-07T03:20:41;93894.09;;;11.69;100.00
30110;BME280;14965;50.660;13.226;2023-08-07T03:23:07;93885.50;;;11.67;100.00
30110;BME280;14965;50.660;13.226;2023-08-07T03:25:32;93891.06;;;11.67;100.00
30110;BME280;14965;50.660;13.226;2023-08-07T03:27:58;93892.75;;;11.65;100.00
30110;BME280;14965;50.660;13.226;2023-08-07T03:30:24;93892.28;;;11.66;100.00
30110;BME280;14965;50.660;13.226;2023-08-07T03:32:50;93901.19;;;11.70;100.00
30110;BME280;14965;50.660;13.226;2023-08-07T03:35:16;93909.94;;;11.69;100.00
30110;BME280;14965;50.660;13.226;2023-08-07T03:37:43;93901.47;;;11.72;100.00
30110;BME280;14965;50.660;13.226;2023-08-07T03:40:10;93909.75;;;11.72;100.00
30110;BME280;14965;50.660;13.226;2023-08-07T03:42:36;93909.47;;;11.70;100.00
30110;BME280;14965;50.660;13.226;2023-08-07T03:45:03;93913.19;;;11.67;100.00
30110;BME280;14965;50.660;13.226;2023-08-07T03:47:29;93918.88;;;11.64;100.00
30110;BME280;14965;50.660;13.226;2023-08-07T03:49:55;93919.34;;;11.62;100.00
30110;BME280;14965;50.660;13.226;2023-08-07T03:52:21;93922.13;;;11.62;100.00
30110;BME280;14965;50.660;13.226;2023-08-07T03:54:48;93929.81;;;11.58;100.00
30110;BME280;14965;50.660;13.226;2023-08-07T03:57:14;93932.88;;;11.60;100.00
30110;BME280;14965;50.660;13.226;2023-08-07T03:59:40;93926.41;;;11.63;100.00
30110;BME280;14965;50.660;13.226;2023-08-07T04:02:06;93932.22;;;11.65;100.00
30110;BME280;14965;50.660;13.226;2023-08-07T04:04:32;93938.34;;;11.69;100.00
30110;BME280;14965;50.660;13.226;2023-08-07T04:06:58;93931.88;;;11.72;100.00
30110;BME280;14965;50.660;13.226;2023-08-07T04:09:24;93938.66;;;11.71;100.00
30110;BME280;14965;50.660;13.226;2023-08-07T04:11:51;93940.34;;;11.69;100.00
30110;BME280;14965;50.660;13.226;2023-08-07T04:14:17;93952.06;;;11.64;100.00
30110;BME280;14965;50.660;13.226;2023-08-07T04:16:43;93950.53;;;11.63;100.00
30110;BME280;14965;50.660;13.226;2023-08-07T04:19:09;93956.06;;;11.63;100.00
30110;BME280;14965;50.660;13.226;2023-08-07T04:21:35;93966.06;;;11.60;100.00
30110;BME280;14965;50.660;13.226;2023-08-07T04:24:01;93962.03;;;11.61;100.00
30110;BME280;14965;50.660;13.226;2023-08-07T04:26:27;93961.88;;;11.65;100.00
30110;BME280;14965;50.660;13.226;2023-08-07T04:28:54;93964.47;;;11.68;100.00
30110;BME280;14965;50.660;13.226;2023-08-07T04:31:20;93964.47;;;11.68;100.00
30110;BME280;14965;50.660;13.226;2023-08-07T04:33:46;93963.72;;;11.68;100.00
30110;BME280;14965;50.660;13.226;2023-08-07T04:36:12;93960.47;;;11.69;100.00
30110;BME280;14965;50.660;13.226;2023-08-07T04:38:38;93977.22;;;11.66;100.00
30110;BME280;14965;50.660;13.226;2023-08-07T04:41:03;93969.72;;;11.66;100.00
30110;BME280;14965;50.660;13.226;2023-08-07T04:43:29;93962.97;;;11.67;100.00
30110;BME280;14965;50.660;13.226;2023-08-07T04:45:57;93969.25;;;11.68;100.00
30110;BME280;14965;50.660;13.226;2023-08-07T04:48:23;93960.63;;;11.66;100.00
30110;BME280;14965;50.660;13.226;2023-08-07T04:50:49;93978.94;;;11.63;100.00
30110;BME280;14965;50.660;13.226;2023-08-07T04:53:14;93970.66;;;11.63;100.00
30110;BME280;14965;50.660;13.226;2023-08-07T04:55:40;93974.19;;;11.64;100.00
30110;BME280;14965;50.660;13.226;2023-08-07T04:58:06;93973.09;;;11.61;100.00
30110;BME280;14965;50.660;13.226;2023-08-07T05:00:32;93961.75;;;11.59;100.00
30110;BME280;14965;50.660;13.226;2023-08-07T05:03:00;93976.63;;;11.62;100.00
30110;BME280;14965;50.660;13.226;2023-08-07T05:05:27;93972.19;;;11.64;100.00
30110;BME280;14965;50.660;13.226;2023-08-07T05:07:54;93970.19;;;11.65;100.00
30110;BME280;14965;50.660;13.226;2023-08-07T05:10:20;93974.03;;;11.67;100.00
30110;BME280;14965;50.660;13.226;2023-08-07T05:12:46;93971.91;;;11.62;100.00
30110;BME280;14965;50.660;13.226;2023-08-07T05:15:12;93971.91;;;11.62;100.00
30110;BME280;14965;50.660;13.226;2023-08-07T05:17:38;93971.09;;;11.62;100.00
30110;BME280;14965;50.660;13.226;2023-08-07T05:20:07;93983.88;;;11.59;100.00
30110;BME280;14965;50.660;13.226;2023-08-07T05:22:33;93982.03;;;11.56;100.00
30110;BME280;14965;50.660;13.226;2023-08-07T05:24:59;93985.44;;;11.51;100.00
30110;BME280;14965;50.660;13.226;2023-08-07T05:27:25;93987.44;;;11.51;100.00
30110;BME280;14965;50.660;13.226;2023-08-07T05:29:51;93991.91;;;11.48;100.00
30110;BME280;14965;50.660;13.226;2023-08-07T05:32:17;93993.91;;;11.47;100.00
30110;BME280;14965;50.660;13.226;2023-08-07T05:34:43;93995.44;;;11.48;100.00
30110;BME280;14965;50.660;13.226;2023-08-07T05:37:11;94010.03;;;11.49;100.00
30110;BME280;14965;50.660;13.226;2023-08-07T05:39:36;93992.06;;;11.44;100.00
30110;BME280;14965;50.660;13.226;2023-08-07T05:42:03;94001.59;;;11.43;100.00
30110;BME280;14965;50.660;13.226;2023-08-07T05:44:30;94001.44;;;11.47;100.00
30110;BME280;14965;50.660;13.226;2023-08-07T05:46:56;94010.03;;;11.49;100.00
30110;BME280;14965;50.660;13.226;2023-08-07T05:49:22;94014.34;;;11.50;100.00
30110;BME280;14965;50.660;13.226;2023-08-07T05:51:48;94015.25;;;11.47;100.00
30110;BME280;14965;50.660;13.226;2023-08-07T05:54:15;94026.16;;;11.51;100.00
30110;BME280;14965;50.660;13.226;2023-08-07T05:56:41;94023.84;;;11.49;100.00
30110;BME280;14965;50.660;13.226;2023-08-07T05:59:07;94031.38;;;11.48;100.00
30110;BME280;14965;50.660;13.226;2023-08-07T06:01:33;94031.53;;;11.45;100.00
30110;BME280;14965;50.660;13.226;2023-08-07T06:03:59;94038.31;;;11.44;100.00
30110;BME280;14965;50.660;13.226;2023-08-07T06:06:25;94044.31;;;11.42;100.00
30110;BME280;14965;50.660;13.226;2023-08-07T06:08:51;94039.06;;;11.44;100.00
30110;BME280;14965;50.660;13.226;2023-08-07T06:11:19;94044.44;;;11.48;100.00
30110;BME280;14965;50.660;13.226;2023-08-07T06:13:45;94049.19;;;11.47;100.00
30110;BME280;14965;50.660;13.226;2023-08-07T06:16:10;94054.88;;;11.44;100.00
30110;BME280;14965;50.660;13.226;2023-08-07T06:18:37;94053.84;;;11.41;100.00
30110;BME280;14965;50.660;13.226;2023-08-07T06:21:03;94056.41;;;11.45;100.00
30110;BME280;14965;50.660;13.226;2023-08-07T06:23:30;94064.25;;;11.46;100.00
30110;BME280;14965;50.660;13.226;2023-08-07T06:25:56;94064.56;;;11.48;100.00
30110;BME280;14965;50.660;13.226;2023-08-07T06:28:23;94065.78;;;11.47;100.00
30110;BME280;14965;50.660;13.226;2023-08-07T06:30:49;94074.84;;;11.48;100.00
30110;BME280;14965;50.660;13.226;2023-08-07T06:33:15;94087.00;;;11.41;100.00
30110;BME280;14965;50.660;13.226;2023-08-07T06:35:41;94075.63;;;11.39;100.00
30110;BME280;14965;50.660;13.226;2023-08-07T06:38:07;94090.06;;;11.43;100.00
30110;BME280;14965;50.660;13.226;2023-08-07T06:40:35;94089.88;;;11.56;100.00
30110;BME280;14965;50.660;13.226;2023-08-07T06:43:01;94104.03;;;11.58;100.00
30110;BME280;14965;50.660;13.226;2023-08-07T06:45:28;94093.88;;;11.64;100.00
30110;BME280;14965;50.660;13.226;2023-08-07T06:47:54;94100.47;;;11.76;100.00
30110;BME280;14965;50.660;13.226;2023-08-07T06:50:20;94100.94;;;11.84;100.00
30110;BME280;14965;50.660;13.226;2023-08-07T06:52:46;94102.16;;;11.73;100.00
30110;BME280;14965;50.660;13.226;2023-08-07T06:55:12;94108.44;;;11.74;100.00
30110;BME280;14965;50.660;13.226;2023-08-07T06:57:38;94110.91;;;11.72;100.00
30110;BME280;14965;50.660;13.226;2023-08-07T07:00:06;94106.78;;;11.67;100.00
30110;BME280;14965;50.660;13.226;2023-08-07T07:02:33;94112.91;;;11.71;100.00
30110;BME280;14965;50.660;13.226;2023-08-07T07:04:59;94112.91;;;11.71;100.00
30110;BME280;14965;50.660;13.226;2023-08-07T07:07:25;94119.69;;;11.70;100.00
30110;BME280;14965;50.660;13.226;2023-08-07T07:09:51;94121.66;;;11.70;100.00
30110;BME280;14965;50.660;13.226;2023-08-07T07:12:17;94114.91;;;11.71;100.00
30110;BME280;14965;50.660;13.226;2023-08-07T07:14:42;94125.50;;;11.72;100.00
30110;BME280;14965;50.660;13.226;2023-08-07T07:17:08;94126.59;;;11.75;100.00
30110;BME280;14965;50.660;13.226;2023-08-07T07:19:36;94129.16;;;11.79;100.00
30110;BME280;14965;50.660;13.226;2023-08-07T07:22:02;94135.50;;;11.88;100.00
30110;BME280;14965;50.660;13.226;2023-08-07T07:24:28;94134.22;;;11.99;100.00
30110;BME280;14965;50.660;13.226;2023-08-07T07:26:53;94141.44;;;12.05;100.00
30110;BME280;14965;50.660;13.226;2023-08-07T07:29:20;94144.19;;;12.14;100.00
30110;BME280;14965;50.660;13.226;2023-08-07T07:31:46;94141.72;;;12.16;100.00
30110;BME280;14965;50.660;13.226;2023-08-07T07:34:12;94147.56;;;12.18;100.00
30110;BME280;14965;50.660;13.226;2023-08-07T07:36:39;94150.31;;;12.18;100.00
30110;BME280;14965;50.660;13.226;2023-08-07T07:39:05;94160.31;;;12.16;100.00
30110;BME280;14965;50.660;13.226;2023-08-07T07:41:31;94152.22;;;12.12;100.00
30110;BME280;14965;50.660;13.226;2023-08-07T07:43:57;94155.91;;;12.09;100.00
30110;BME280;14965;50.660;13.226;2023-08-07T07:46:23;94163.59;;;12.05;100.00
30110;BME280;14965;50.660;13.226;2023-08-07T07:48:49;94168.03;;;12.03;100.00
30110;BME280;14965;50.660;13.226;2023-08-07T07:51:15;94168.97;;;12.00;100.00
30110;BME280;14965;50.660;13.226;2023-08-07T07:53:42;94169.75;;;12.00;100.00
30110;BME280;14965;50.660;13.226;2023-08-07T07:56:08;94172.97;;;11.99;100.00
30110;BME280;14965;50.660;13.226;2023-08-07T07:58:34;94170.53;;;12.01;100.00
30110;BME280;14965;50.660;13.226;2023-08-07T08:01:00;94180.50;;;11.98;100.00
30110;BME280;14965;50.660;13.226;2023-08-07T08:03:26;94191.44;;;11.92;100.00
30110;BME280;14965;50.660;13.226;2023-08-07T08:05:52;94184.53;;;11.88;100.00
30110;BME280;14965;50.660;13.226;2023-08-07T08:08:18;94183.16;;;11.92;100.00
30110;BME280;14965;50.660;13.226;2023-08-07T08:10:46;94185.41;;;12.03;100.00
30110;BME280;14965;50.660;13.226;2023-08-07T08:13:12;94188.63;;;12.11;100.00
30110;BME280;14965;50.660;13.226;2023-08-07T08:15:38;94194.94;;;12.11;100.00
30110;BME280;14965;50.660;13.226;2023-08-07T08:18:04;94191.25;;;12.14;100.00
30110;BME280;14965;50.660;13.226;2023-08-07T08:20:30;94193.69;;;12.21;100.00
30110;BME280;14965;50.660;13.226;2023-08-07T08:22:56;94186.44;;;12.24;100.00
30110;BME280;14965;50.660;13.226;2023-08-07T08:25:22;94198.28;;;12.25;100.00
30110;BME280;14965;50.660;13.226;2023-08-07T08:27:49;94195.19;;;12.32;100.00
30110;BME280;14965;50.660;13.226;2023-08-07T08:30:15;94201.94;;;12.40;100.00
30110;BME280;14965;50.660;13.226;2023-08-07T08:32:43;94202.53;;;12.44;100.00
30110;BME280;14965;50.660;13.226;2023-08-07T08:35:09;94216.69;;;12.46;100.00
30110;BME280;14965;50.660;13.226;2023-08-07T08:37:35;94221.00;;;12.47;100.00
30110;BME280;14965;50.660;13.226;2023-08-07T08:40:01;94219.91;;;12.44;100.00
30110;BME280;14965;50.660;13.226;2023-08-07T08:42:28;94221.00;;;12.47;100.00
30110;BME280;14965;50.660;13.226;2023-08-07T08:44:56;94221.44;;;12.55;100.00
30110;BME280;14965;50.660;13.226;2023-08-07T08:47:25;94240.78;;;12.64;100.00
30110;BME280;14965;50.660;13.226;2023-08-07T08:49:54;94226.63;;;12.62;100.00
30110;BME280;14965;50.660;13.226;2023-08-07T08:52:23;94227.75;;;12.55;100.00
30110;BME280;14965;50.660;13.226;2023-08-07T08:54:50;94232.69;;;12.51;100.00
30110;BME280;14965;50.660;13.226;2023-08-07T08:57:17;94234.66;;;12.60;100.00
30110;BME280;14965;50.660;13.226;2023-08-07T08:59:45;94232.69;;;12.51;100.00
30110;BME280;14965;50.660;13.226;2023-08-07T09:02:13;94235.72;;;12.53;100.00
30110;BME280;14965;50.660;13.226;2023-08-07T09:04:38;94240.22;;;12.51;100.00
30110;BME280;14965;50.660;13.226;2023-08-07T09:07:05;94237.78;;;12.43;100.00
30110;BME280;14965;50.660;13.226;2023-08-07T09:09:31;94242.22;;;12.41;100.00
30110;BME280;14965;50.660;13.226;2023-08-07T09:11:59;94254.41;;;12.34;100.00
30110;BME280;14965;50.660;13.226;2023-08-07T09:14:27;94253.50;;;12.28;100.00
30110;BME280;14965;50.660;13.226;2023-08-07T09:16:57;94261.03;;;12.28;100.00
30110;BME280;14965;50.660;13.226;2023-08-07T09:19:26;94252.56;;;12.31;100.00
30110;BME280;14965;50.660;13.226;2023-08-07T09:21:52;94253.66;;;12.34;100.00
30110;BME280;14965;50.660;13.226;2023-08-07T09:24:19;94265.66;;;12.21;100.00
30110;BME280;14965;50.660;13.226;2023-08-07T09:26:45;94260.28;;;12.18;100.00
30110;BME280;14965;50.660;13.226;2023-08-07T09:29:11;94262.59;;;12.19;100.00
30110;BME280;14965;50.660;13.226;2023-08-07T09:31:37;94264.72;;;12.25;100.00
30110;BME280;14965;50.660;13.226;2023-08-07T09:34:04;94260.75;;;12.16;100.00
30110;BME280;14965;50.660;13.226;2023-08-07T09:36:33;94271.22;;;12.12;100.00
30110;BME280;14965;50.660;13.226;2023-08-07T09:39:01;94269.66;;;12.11;100.00
30110;BME280;14965;50.660;13.226;2023-08-07T09:41:29;94273.81;;;12.07;100.00
30110;BME280;14965;50.660;13.226;2023-08-07T09:43:55;94271.97;;;12.04;100.00
30110;BME280;14965;50.660;13.226;2023-08-07T09:46:21;94270.16;;;12.01;100.00
30110;BME280;14965;50.660;13.226;2023-08-07T09:48:47;94271.22;;;11.94;100.00
30110;BME280;14965;50.660;13.226;2023-08-07T09:51:13;94285.69;;;11.89;100.00
30110;BME280;14965;50.660;13.226;2023-08-07T09:53:41;94281.38;;;11.88;100.00
30110;BME280;14965;50.660;13.226;2023-08-07T09:56:07;94287.81;;;11.94;100.00
30110;BME280;14965;50.660;13.226;2023-08-07T09:58:34;94294.13;;;12.04;100.00
30110;BME280;14965;50.660;13.226;2023-08-07T10:01:03;94285.97;;;12.09;100.00
30110;BME280;14965;50.660;13.226;2023-08-07T10:03:29;94286.09;;;12.24;100.00
30110;BME280;14965;50.660;13.226;2023-08-07T10:05:55;94294.84;;;12.41;100.00
30110;BME280;14965;50.660;13.226;2023-08-07T10:08:22;94284.25;;;12.39;100.00
30110;BME280;14965;50.660;13.226;2023-08-07T10:10:49;94288.22;;;12.48;100.00
30110;BME280;14965;50.660;13.226;2023-08-07T10:13:15;94296.53;;;12.48;100.00
30110;BME280;14965;50.660;13.226;2023-08-07T10:15:41;94289.47;;;12.46;100.00
30110;BME280;14965;50.660;13.226;2023-08-07T10:18:09;94296.06;;;12.58;100.00
30110;BME280;14965;50.660;13.226;2023-08-07T10:20:36;94292.91;;;12.75;100.00
30110;BME280;14965;50.660;13.226;2023-08-07T10:23:07;94297.81;;;12.89;100.00
30110;BME280;14965;50.660;13.226;2023-08-07T10:25:36;94298.84;;;12.91;100.00
30110;BME280;14965;50.660;13.226;2023-08-07T10:28:08;94306.41;;;12.91;100.00
30110;BME280;14965;50.660;13.226;2023-08-07T10:30:35;94298.25;;;12.96;100.00
30110;BME280;14965;50.660;13.226;2023-08-07T10:33:03;94289.78;;;13.00;100.00
30110;BME280;14965;50.660;13.226;2023-08-07T10:35:32;94289.94;;;12.96;100.00
30110;BME280;14965;50.660;13.226;2023-08-07T10:38:05;94299.22;;;12.84;100.00
30110;BME280;14965;50.660;13.226;2023-08-07T10:40:31;94296.44;;;12.84;100.00
30110;BME280;14965;50.660;13.226;2023-08-07T10:42:59;94294.88;;;12.92;100.00
30110;BME280;14965;50.660;13.226;2023-08-07T10:45:28;94289.88;;;13.06;100.00
30110;BME280;14965;50.660;13.226;2023-08-07T10:48:08;94293.19;;;13.28;100.00
30110;BME280;14965;50.660;13.226;2023-08-07T10:50:36;94297.19;;;13.60;100.00
30110;BME280;14965;50.660;13.226;2023-08-07T10:53:19;94287.63;;;14.00;100.00
30110;BME280;14965;50.660;13.226;2023-08-07T10:55:45;94287.63;;;14.39;100.00
30110;BME280;14965;50.660;13.226;2023-08-07T10:58:23;94294.16;;;14.95;100.00
30110;BME280;14965;50.660;13.226;2023-08-07T11:00:51;94286.59;;;15.31;100.00
30110;BME280;14965;50.660;13.226;2023-08-07T11:03:26;94274.34;;;15.23;95.89
30110;BME280;14965;50.660;13.226;2023-08-07T11:05:52;94284.25;;;15.09;95.71
30110;BME280;14965;50.660;13.226;2023-08-07T11:08:22;94281.44;;;15.24;96.20
30110;BME280;14965;50.660;13.226;2023-08-07T11:10:48;94278.06;;;15.34;95.16
30110;BME280;14965;50.660;13.226;2023-08-07T11:13:15;94286.03;;;15.27;95.44
30110;BME280;14965;50.660;13.226;2023-08-07T11:15:41;94287.13;;;15.14;95.27
30110;BME280;14965;50.660;13.226;2023-08-07T11:18:08;94279.56;;;15.00;94.41
30110;BME280;14965;50.660;13.226;2023-08-07T11:20:35;94287.53;;;14.78;93.79
30110;BME280;14965;50.660;13.226;2023-08-07T11:23:02;94292.06;;;14.60;97.86
30110;BME280;14965;50.660;13.226;2023-08-07T11:25:30;94293.69;;;14.52;99.26
30110;BME280;14965;50.660;13.226;2023-08-07T11:27:56;94297.75;;;14.42;99.83
30110;BME280;14965;50.660;13.226;2023-08-07T11:30:22;94280.31;;;14.27;100.00
30110;BME280;14965;50.660;13.226;2023-08-07T11:32:49;94282.59;;;14.13;100.00
30110;BME280;14965;50.660;13.226;2023-08-07T11:35:17;94295.56;;;13.92;100.00
30110;BME280;14965;50.660;13.226;2023-08-07T11:37:46;94296.50;;;13.65;100.00
30110;BME280;14965;50.660;13.226;2023-08-07T11:40:12;94298.00;;;13.52;100.00
30110;BME280;14965;50.660;13.226;2023-08-07T11:42:37;94299.53;;;13.53;100.00
30110;BME280;14965;50.660;13.226;2023-08-07T11:45:04;94306.19;;;13.70;100.00
30110;BME280;14965;50.660;13.226;2023-08-07T11:47:31;94297.34;;;13.81;100.00
30110;BME280;14965;50.660;13.226;2023-08-07T11:49:58;94300.13;;;13.81;100.00
30110;BME280;14965;50.660;13.226;2023-08-07T11:52:25;94296.75;;;13.77;100.00
30110;BME280;14965;50.660;13.226;2023-08-07T11:54:53;94303.13;;;13.92;100.00
30110;BME280;14965;50.660;13.226;2023-08-07T11:57:20;94297.47;;;14.40;100.00
30110;BME280;14965;50.660;13.226;2023-08-07T11:59:52;94302.41;;;14.75;100.00
30110;BME280;14965;50.660;13.226;2023-08-07T12:02:24;94294.91;;;14.95;100.00
30110;BME280;14965;50.660;13.226;2023-08-07T12:04:50;94286.19;;;15.03;100.00
30110;BME280;14965;50.660;13.226;2023-08-07T12:07:17;94289.44;;;15.01;100.00
30110;BME280;14965;50.660;13.226;2023-08-07T12:09:45;94295.22;;;14.98;100.00
30110;BME280;14965;50.660;13.226;2023-08-07T12:12:11;94297.50;;;14.99;99.58
30110;BME280;14965;50.660;13.226;2023-08-07T12:14:38;94296.22;;;15.15;100.00
30110;BME280;14965;50.660;13.226;2023-08-07T12:17:05;94283.06;;;15.30;100.00
30110;BME280;14965;50.660;13.226;2023-08-07T12:19:38;94288.69;;;15.36;100.00
30110;BME280;14965;50.660;13.226;2023-08-07T12:22:07;94295.88;;;15.42;99.11
30110;BME280;14965;50.660;13.226;2023-08-07T12:24:35;94301.22;;;15.46;98.79
30110;BME280;14965;50.660;13.226;2023-08-07T12:27:02;94303.44;;;15.42;97.06
30110;BME280;14965;50.660;13.226;2023-08-07T12:29:28;94303.56;;;15.33;95.97
30110;BME280;14965;50.660;13.226;2023-08-07T12:31:54;94313.41;;;14.99;92.55
30110;BME280;14965;50.660;13.226;2023-08-07T12:34:20;94319.47;;;14.67;96.00
30110;BME280;14965;50.660;13.226;2023-08-07T12:36:46;94314.81;;;14.35;97.44
30110;BME280;14965;50.660;13.226;2023-08-07T12:39:12;94318.97;;;14.15;99.56